sensor_id;sensor_type;location;lat;lon;timestamp;pressure;altitude;pressure_sealevel;temperature;humidity
60676;BME280;46716;38.014;-7.874;2022-07-15T00:01:36;99709.28;;;25.82;42.40
60676;BME280;46716;38.014;-7.874;2022-07-15T00:03:37;99712.63;;;25.84;42.08
60676;BME280;46716;38.014;-7.874;2022-07-15T00:05:38;99714.13;;;25.86;42.30
60676;BME280;46716;38.014;-7.874;2022-07-15T00:07:39;99705.38;;;25.84;41.38
60676;BME280;46716;38.014;-7.874;2022-07-15T00:09:40;99694.72;;;25.83;41.40
60676;BME280;46716;38.014;-7.874;2022-07-15T00:11:59;99705.19;;;25.86;41.49
60676;BME280;46716;38.014;-7.874;2022-07-15T00:14:00;99713.81;;;25.81;41.79
60676;BME280;46716;38.014;-7.874;2022-07-15T00:16:01;99692.09;;;25.66;42.84
60676;BME280;46716;38.014;-7.874;2022-07-15T00:18:02;99701.88;;;25.59;43.10
60676;BME280;46716;38.014;-7.874;2022-07-15T00:20:04;99682.16;;;25.42;43.29
60676;BME280;46716;38.014;-7.874;2022-07-15T00:22:06;99700.56;;;25.46;43.43
60676;BME280;46716;38.014;-7.874;2022-07-15T00:24:07;99688.63;;;25.32;43.13
60676;BME280;46716;38.014;-7.874;2022-07-15T00:26:08;99671.75;;;25.13;43.11
60676;BME280;46716;38.014;-7.874;2022-07-15T00:28:09;99680.03;;;25.12;43.17
60676;BME280;46716;38.014;-7.874;2022-07-15T00:30:10;99680.72;;;24.97;43.20
60676;BME280;46716;38.014;-7.874;2022-07-15T00:32:11;99670.44;;;24.84;43.83
60676;BME280;46716;38.014;-7.874;2022-07-15T00:34:12;99680.38;;;24.84;43.92
60676;BME280;46716;38.014;-7.874;2022-07-15T00:36:13;99663.50;;;24.73;44.01
60676;BME280;46716;38.014;-7.874;2022-07-15T00:38:15;99684.44;;;24.80;43.80
60676;BME280;46716;38.014;-7.874;2022-07-15T00:40:16;99679.53;;;24.75;44.22
60676;BME280;46716;38.014;-7.874;2022-07-15T00:42:17;99678.84;;;24.73;43.94
60676;BME280;46716;38.014;-7.874;2022-07-15T00:44:36;99664.19;;;24.59;43.96
60676;BME280;46716;38.014;-7.874;2022-07-15T00:46:43;99668.56;;;24.60;43.87
60676;BME280;46716;38.014;-7.874;2022-07-15T00:48:49;99679.03;;;24.63;43.78
60676;BME280;46716;38.014;-7.874;2022-07-15T00:50:50;99672.78;;;24.54;43.57
60676;BME280;46716;38.014;-7.874;2022-07-15T00:52:56;99668.06;;;24.48;44.35
60676;BME280;46716;38.014;-7.874;2022-07-15T00:55:01;99670.75;;;24.48;44.58
60676;BME280;46716;38.014;-7.874;2022-07-15T00:57:05;99651.34;;;24.28;45.25
60676;BME280;46716;38.014;-7.874;2022-07-15T00:59:06;99669.38;;;24.27;45.40
60676;BME280;46716;38.014;-7.874;2022-07-15T01:01:12;99651.84;;;24.15;45.47
60676;BME280;46716;38.014;-7.874;2022-07-15T01:03:14;99640.50;;;24.03;45.49
60676;BME280;46716;38.014;-7.874;2022-07-15T01:05:18;99667.19;;;24.22;45.93
60676;BME280;46716;38.014;-7.874;2022-07-15T01:07:20;99660.75;;;24.15;46.06
60676;BME280;46716;38.014;-7.874;2022-07-15T01:09:21;99638.13;;;24.08;45.94
60676;BME280;46716;38.014;-7.874;2022-07-15T01:11:22;99654.69;;;24.13;46.20
60676;BME280;46716;38.014;-7.874;2022-07-15T01:13:23;99640.81;;;24.08;46.72
60676;BME280;46716;38.014;-7.874;2022-07-15T01:15:24;99652.00;;;24.13;46.98
60676;BME280;46716;38.014;-7.874;2022-07-15T01:17:26;99634.25;;;24.02;46.73
60676;BME280;46716;38.014;-7.874;2022-07-15T01:19:27;99638.28;;;23.98;47.21
60676;BME280;46716;38.014;-7.874;2022-07-15T01:21:28;99636.25;;;23.92;47.40
60676;BME280;46716;38.014;-7.874;2022-07-15T01:23:32;99644.81;;;23.87;47.63
60676;BME280;46716;38.014;-7.874;2022-07-15T01:25:38;99644.28;;;23.83;47.96
60676;BME280;46716;38.014;-7.874;2022-07-15T01:27:43;99633.34;;;23.85;47.93
60676;BME280;46716;38.014;-7.874;2022-07-15T01:29:48;99638.75;;;23.85;47.63
60676;BME280;46716;38.014;-7.874;2022-07-15T01:31:50;99640.28;;;23.87;47.87
60676;BME280;46716;38.014;-7.874;2022-07-15T01:33:51;99633.69;;;23.82;48.01
60676;BME280;46716;38.014;-7.874;2022-07-15T01:35:55;99633.50;;;23.83;48.09
60676;BME280;46716;38.014;-7.874;2022-07-15T01:37:58;99640.94;;;23.90;48.04
60676;BME280;46716;38.014;-7.874;2022-07-15T01:39:59;99625.63;;;23.90;48.26
60676;BME280;46716;38.014;-7.874;2022-07-15T01:42:00;99626.13;;;23.94;48.02
60676;BME280;46716;38.014;-7.874;2022-07-15T01:44:01;99624.97;;;23.96;47.73
60676;BME280;46716;38.014;-7.874;2022-07-15T01:46:02;99621.78;;;24.01;47.44
60676;BME280;46716;38.014;-7.874;2022-07-15T01:48:09;99625.84;;;24.05;47.26
60676;BME280;46716;38.014;-7.874;2022-07-15T01:50:43;99608.31;;;24.01;47.36
60676;BME280;46716;38.014;-7.874;2022-07-15T01:52:51;99620.75;;;24.10;47.41
60676;BME280;46716;38.014;-7.874;2022-07-15T01:54:52;99613.22;;;24.14;47.57
60676;BME280;46716;38.014;-7.874;2022-07-15T01:56:54;99608.13;;;24.11;46.97
60676;BME280;46716;38.014;-7.874;2022-07-15T01:58:57;99587.22;;;24.05;47.13
60676;BME280;46716;38.014;-7.874;2022-07-15T02:00:58;99607.63;;;24.07;46.87
60676;BME280;46716;38.014;-7.874;2022-07-15T02:03:00;99593.78;;;23.94;47.31
60676;BME280;46716;38.014;-7.874;2022-07-15T02:05:01;99612.19;;;24.07;47.70
60676;BME280;46716;38.014;-7.874;2022-07-15T02:07:02;99613.53;;;24.03;47.35
60676;BME280;46716;38.014;-7.874;2022-07-15T02:09:08;99629.03;;;24.00;47.68
60676;BME280;46716;38.014;-7.874;2022-07-15T02:11:15;99626.66;;;23.97;47.77
60676;BME280;46716;38.014;-7.874;2022-07-15T02:13:19;99625.63;;;23.90;48.18
60676;BME280;46716;38.014;-7.874;2022-07-15T02:15:30;99609.59;;;23.80;48.38
60676;BME280;46716;38.014;-7.874;2022-07-15T02:17:35;99626.59;;;23.81;48.50
60676;BME280;46716;38.014;-7.874;2022-07-15T02:19:36;99615.28;;;23.69;48.82
60676;BME280;46716;38.014;-7.874;2022-07-15T02:21:37;99614.72;;;23.57;49.22
60676;BME280;46716;38.014;-7.874;2022-07-15T02:23:38;99608.00;;;23.53;49.32
60676;BME280;46716;38.014;-7.874;2022-07-15T02:25:40;99598.50;;;23.40;49.51
60676;BME280;46716;38.014;-7.874;2022-07-15T02:27:42;99601.34;;;23.39;50.10
60676;BME280;46716;38.014;-7.874;2022-07-15T02:29:43;99602.91;;;23.41;49.94
60676;BME280;46716;38.014;-7.874;2022-07-15T02:31:45;99613.19;;;23.46;50.35
60676;BME280;46716;38.014;-7.874;2022-07-15T02:33:46;99606.41;;;23.42;50.48
60676;BME280;46716;38.014;-7.874;2022-07-15T02:35:47;99599.97;;;23.34;50.41
60676;BME280;46716;38.014;-7.874;2022-07-15T02:37:48;99601.50;;;23.37;50.22
60676;BME280;46716;38.014;-7.874;2022-07-15T02:39:49;99608.28;;;23.41;50.29
60676;BME280;46716;38.014;-7.874;2022-07-15T02:41:50;99591.22;;;23.32;50.35
60676;BME280;46716;38.014;-7.874;2022-07-15T02:43:51;99598.81;;;23.37;50.54
60676;BME280;46716;38.014;-7.874;2022-07-15T02:45:52;99606.75;;;23.39;50.55
60676;BME280;46716;38.014;-7.874;2022-07-15T02:47:54;99602.38;;;23.37;50.88
60676;BME280;46716;38.014;-7.874;2022-07-15T02:50:02;99601.13;;;23.32;50.96
60676;BME280;46716;38.014;-7.874;2022-07-15T02:52:05;99591.38;;;23.31;50.98
60676;BME280;46716;38.014;-7.874;2022-07-15T02:54:12;99586.31;;;23.28;50.95
60676;BME280;46716;38.014;-7.874;2022-07-15T02:56:15;99571.13;;;23.18;50.95
60676;BME280;46716;38.014;-7.874;2022-07-15T02:58:15;99579.34;;;23.17;51.13
60676;BME280;46716;38.014;-7.874;2022-07-15T03:00:17;99580.03;;;23.19;51.15
60676;BME280;46716;38.014;-7.874;2022-07-15T03:02:23;99592.66;;;23.18;50.80
60676;BME280;46716;38.014;-7.874;2022-07-15T03:04:24;99569.19;;;23.02;50.91
60676;BME280;46716;38.014;-7.874;2022-07-15T03:06:26;99586.53;;;23.08;51.40
60676;BME280;46716;38.014;-7.874;2022-07-15T03:08:27;99586.53;;;23.08;51.71
60676;BME280;46716;38.014;-7.874;2022-07-15T03:10:28;99569.34;;;23.01;51.71
60676;BME280;46716;38.014;-7.874;2022-07-15T03:12:28;99572.34;;;22.97;52.03
60676;BME280;46716;38.014;-7.874;2022-07-15T03:14:30;99570.78;;;22.86;52.61
60676;BME280;46716;38.014;-7.874;2022-07-15T03:16:31;99568.66;;;22.98;52.62
60676;BME280;46716;38.014;-7.874;2022-07-15T03:18:33;99566.28;;;22.95;52.80
60676;BME280;46716;38.014;-7.874;2022-07-15T03:20:34;99582.50;;;23.04;52.96
60676;BME280;46716;38.014;-7.874;2022-07-15T03:22:36;99568.47;;;22.92;53.29
60676;BME280;46716;38.014;-7.874;2022-07-15T03:24:38;99583.97;;;22.98;53.00
60676;BME280;46716;38.014;-7.874;2022-07-15T03:26:39;99583.13;;;22.97;52.95
60676;BME280;46716;38.014;-7.874;2022-07-15T03:28:40;99565.22;;;22.88;53.29
60676;BME280;46716;38.014;-7.874;2022-07-15T03:30:41;99575.38;;;22.94;53.79
60676;BME280;46716;38.014;-7.874;2022-07-15T03:32:44;99579.09;;;23.02;53.87
60676;BME280;46716;38.014;-7.874;2022-07-15T03:34:46;99570.22;;;23.01;53.75
60676;BME280;46716;38.014;-7.874;2022-07-15T03:36:53;99574.88;;;22.99;53.98
60676;BME280;46716;38.014;-7.874;2022-07-15T03:38:55;99571.19;;;23.00;53.93
60676;BME280;46716;38.014;-7.874;2022-07-15T03:40:56;99569.97;;;22.94;53.82
60676;BME280;46716;38.014;-7.874;2022-07-15T03:42:57;99555.31;;;22.89;53.91
60676;BME280;46716;38.014;-7.874;2022-07-15T03:44:58;99564.56;;;22.86;53.93
60676;BME280;46716;38.014;-7.874;2022-07-15T03:46:59;99574.16;;;22.89;54.30
60676;BME280;46716;38.014;-7.874;2022-07-15T03:49:00;99562.81;;;22.77;54.51
60676;BME280;46716;38.014;-7.874;2022-07-15T03:51:01;99564.47;;;22.69;54.40
60676;BME280;46716;38.014;-7.874;2022-07-15T03:53:02;99557.00;;;22.63;54.44
60676;BME280;46716;38.014;-7.874;2022-07-15T03:55:03;99566.59;;;22.66;54.09
60676;BME280;46716;38.014;-7.874;2022-07-15T03:57:04;99570.22;;;22.56;54.80
60676;BME280;46716;38.014;-7.874;2022-07-15T03:59:06;99578.84;;;22.60;54.87
60676;BME280;46716;38.014;-7.874;2022-07-15T04:01:07;99571.38;;;22.54;54.89
60676;BME280;46716;38.014;-7.874;2022-07-15T04:03:08;99551.44;;;22.38;55.42
60676;BME280;46716;38.014;-7.874;2022-07-15T04:05:09;99576.44;;;22.57;55.16
60676;BME280;46716;38.014;-7.874;2022-07-15T04:07:11;99572.69;;;22.49;55.45
60676;BME280;46716;38.014;-7.874;2022-07-15T04:09:12;99572.00;;;22.47;55.33
60676;BME280;46716;38.014;-7.874;2022-07-15T04:11:13;99579.75;;;22.51;55.40
60676;BME280;46716;38.014;-7.874;2022-07-15T04:13:14;99566.09;;;22.44;55.49
60676;BME280;46716;38.014;-7.874;2022-07-15T04:15:19;99566.75;;;22.46;55.76
60676;BME280;46716;38.014;-7.874;2022-07-15T04:17:20;99553.41;;;22.36;55.66
60676;BME280;46716;38.014;-7.874;2022-07-15T04:19:22;99550.88;;;22.34;55.68
60676;BME280;46716;38.014;-7.874;2022-07-15T04:21:26;99558.50;;;22.39;55.74
60676;BME280;46716;38.014;-7.874;2022-07-15T04:23:27;99569.25;;;22.39;55.78
60676;BME280;46716;38.014;-7.874;2022-07-15T04:25:28;99558.44;;;22.31;55.94
60676;BME280;46716;38.014;-7.874;2022-07-15T04:27:30;99564.78;;;22.30;56.11
60676;BME280;46716;38.014;-7.874;2022-07-15T04:29:32;99554.84;;;22.22;56.00
60676;BME280;46716;38.014;-7.874;2022-07-15T04:31:33;99559.53;;;22.20;56.08
60676;BME280;46716;38.014;-7.874;2022-07-15T04:33:45;99563.69;;;22.14;56.36
60676;BME280;46716;38.014;-7.874;2022-07-15T04:35:46;99555.81;;;22.03;56.33
60676;BME280;46716;38.014;-7.874;2022-07-15T04:37:47;99562.59;;;22.07;56.58
60676;BME280;46716;38.014;-7.874;2022-07-15T04:39:48;99561.19;;;22.03;56.71
60676;BME280;46716;38.014;-7.874;2022-07-15T04:41:50;99560.97;;;21.96;56.93
60676;BME280;46716;38.014;-7.874;2022-07-15T04:43:52;99557.91;;;21.91;56.94
60676;BME280;46716;38.014;-7.874;2022-07-15T04:45:53;99570.22;;;21.93;57.26
60676;BME280;46716;38.014;-7.874;2022-07-15T04:47:55;99551.91;;;21.79;57.18
60676;BME280;46716;38.014;-7.874;2022-07-15T04:50:03;99556.16;;;21.81;57.47
60676;BME280;46716;38.014;-7.874;2022-07-15T04:52:23;99566.34;;;21.78;57.67
60676;BME280;46716;38.014;-7.874;2022-07-15T04:54:25;99568.03;;;21.79;57.92
60676;BME280;46716;38.014;-7.874;2022-07-15T04:56:26;99562.41;;;21.72;58.12
60676;BME280;46716;38.014;-7.874;2022-07-15T04:58:37;99557.31;;;21.69;58.41
60676;BME280;46716;38.014;-7.874;2022-07-15T05:00:44;99577.50;;;21.73;58.64
60676;BME280;46716;38.014;-7.874;2022-07-15T05:02:48;99561.16;;;21.66;58.51
60676;BME280;46716;38.014;-7.874;2022-07-15T05:04:50;99571.91;;;21.66;58.50
60676;BME280;46716;38.014;-7.874;2022-07-15T05:06:52;99564.84;;;21.65;58.94
60676;BME280;46716;38.014;-7.874;2022-07-15T05:08:53;99562.78;;;21.59;59.31
60676;BME280;46716;38.014;-7.874;2022-07-15T05:10:54;99575.19;;;21.60;59.30
60676;BME280;46716;38.014;-7.874;2022-07-15T05:12:55;99568.72;;;21.53;59.20
60676;BME280;46716;38.014;-7.874;2022-07-15T05:14:56;99571.41;;;21.53;59.31
60676;BME280;46716;38.014;-7.874;2022-07-15T05:16:57;99570.03;;;21.48;59.66
60676;BME280;46716;38.014;-7.874;2022-07-15T05:18:57;99573.09;;;21.54;59.89
60676;BME280;46716;38.014;-7.874;2022-07-15T05:21:00;99566.44;;;21.58;60.34
60676;BME280;46716;38.014;-7.874;2022-07-15T05:23:05;99574.63;;;21.56;60.45
60676;BME280;46716;38.014;-7.874;2022-07-15T05:25:11;99577.16;;;21.58;60.20
60676;BME280;46716;38.014;-7.874;2022-07-15T05:27:14;99586.78;;;21.60;60.09
60676;BME280;46716;38.014;-7.874;2022-07-15T05:29:20;99579.63;;;21.51;59.99
60676;BME280;46716;38.014;-7.874;2022-07-15T05:31:26;99580.63;;;21.50;59.44
60676;BME280;46716;38.014;-7.874;2022-07-15T05:33:31;99591.66;;;21.47;59.76
60676;BME280;46716;38.014;-7.874;2022-07-15T05:35:32;99589.00;;;21.37;59.38
60676;BME280;46716;38.014;-7.874;2022-07-15T05:37:34;99587.69;;;21.23;59.41
60676;BME280;46716;38.014;-7.874;2022-07-15T05:39:39;99581.38;;;21.14;59.43
60676;BME280;46716;38.014;-7.874;2022-07-15T05:41:59;99579.94;;;21.10;59.40
60676;BME280;46716;38.014;-7.874;2022-07-15T05:44:03;99577.16;;;21.02;59.22
60676;BME280;46716;38.014;-7.874;2022-07-15T05:46:10;99571.53;;;20.95;59.08
60676;BME280;46716;38.014;-7.874;2022-07-15T05:48:22;99588.75;;;20.92;59.16
60676;BME280;46716;38.014;-7.874;2022-07-15T05:50:27;99592.44;;;20.81;59.54
60676;BME280;46716;38.014;-7.874;2022-07-15T05:52:32;99580.72;;;20.82;59.85
60676;BME280;46716;38.014;-7.874;2022-07-15T05:54:35;99586.50;;;20.78;59.80
60676;BME280;46716;38.014;-7.874;2022-07-15T05:56:37;99593.00;;;20.85;60.29
60676;BME280;46716;38.014;-7.874;2022-07-15T05:58:38;99587.22;;;20.90;60.31
60676;BME280;46716;38.014;-7.874;2022-07-15T06:00:40;99589.88;;;21.00;60.49
60676;BME280;46716;38.014;-7.874;2022-07-15T06:02:41;99586.75;;;21.04;60.28
60676;BME280;46716;38.014;-7.874;2022-07-15T06:04:50;99583.38;;;21.02;60.48
60676;BME280;46716;38.014;-7.874;2022-07-15T06:06:50;99587.19;;;21.00;60.53
60676;BME280;46716;38.014;-7.874;2022-07-15T06:08:54;99579.59;;;20.95;60.00
60676;BME280;46716;38.014;-7.874;2022-07-15T06:10:58;99586.78;;;20.94;59.88
60676;BME280;46716;38.014;-7.874;2022-07-15T06:12:59;99567.16;;;20.94;59.75
60676;BME280;46716;38.014;-7.874;2022-07-15T06:15:01;99579.13;;;21.09;59.60
60676;BME280;46716;38.014;-7.874;2022-07-15T06:17:04;99583.59;;;21.19;59.42
60676;BME280;46716;38.014;-7.874;2022-07-15T06:19:05;99579.56;;;21.33;59.72
60676;BME280;46716;38.014;-7.874;2022-07-15T06:21:09;99573.91;;;21.36;59.41
60676;BME280;46716;38.014;-7.874;2022-07-15T06:23:10;99582.53;;;21.58;59.26
60676;BME280;46716;38.014;-7.874;2022-07-15T06:25:12;99593.22;;;21.78;59.19
60676;BME280;46716;38.014;-7.874;2022-07-15T06:27:13;99576.78;;;21.81;58.69
60676;BME280;46716;38.014;-7.874;2022-07-15T06:29:16;99596.09;;;22.13;58.23
60676;BME280;46716;38.014;-7.874;2022-07-15T06:31:17;99595.94;;;22.32;57.23
60676;BME280;46716;38.014;-7.874;2022-07-15T06:33:18;99601.38;;;22.41;56.77
60676;BME280;46716;38.014;-7.874;2022-07-15T06:35:18;99603.06;;;22.60;56.35
60676;BME280;46716;38.014;-7.874;2022-07-15T06:37:19;99601.50;;;22.76;55.92
60676;BME280;46716;38.014;-7.874;2022-07-15T06:39:22;99605.84;;;22.95;56.92
60676;BME280;46716;38.014;-7.874;2022-07-15T06:41:23;99608.66;;;23.20;57.29
60676;BME280;46716;38.014;-7.874;2022-07-15T06:43:25;99608.38;;;23.31;56.51
60676;BME280;46716;38.014;-7.874;2022-07-15T06:45:46;99624.69;;;23.56;55.84
60676;BME280;46716;38.014;-7.874;2022-07-15T06:47:48;99622.53;;;23.68;55.17
60676;BME280;46716;38.014;-7.874;2022-07-15T06:49:49;99619.38;;;23.81;55.39
60676;BME280;46716;38.014;-7.874;2022-07-15T06:51:51;99621.59;;;23.94;55.20
60676;BME280;46716;38.014;-7.874;2022-07-15T06:53:53;99622.81;;;24.08;53.51
60676;BME280;46716;38.014;-7.874;2022-07-15T06:55:54;99615.94;;;24.14;53.37
60676;BME280;46716;38.014;-7.874;2022-07-15T06:57:55;99616.44;;;24.26;52.19
60676;BME280;46716;38.014;-7.874;2022-07-15T06:59:56;99610.88;;;24.28;51.86
60676;BME280;46716;38.014;-7.874;2022-07-15T07:01:58;99613.75;;;24.34;52.16
60676;BME280;46716;38.014;-7.874;2022-07-15T07:03:59;99608.84;;;24.30;52.05
60676;BME280;46716;38.014;-7.874;2022-07-15T07:06:00;99616.63;;;24.41;51.88
60676;BME280;46716;38.014;-7.874;2022-07-15T07:08:01;99628.59;;;24.55;51.59
60676;BME280;46716;38.014;-7.874;2022-07-15T07:10:02;99602.97;;;24.59;51.18
60676;BME280;46716;38.014;-7.874;2022-07-15T07:12:03;99613.38;;;24.79;50.94
60676;BME280;46716;38.014;-7.874;2022-07-15T07:14:05;99604.78;;;24.84;50.53
60676;BME280;46716;38.014;-7.874;2022-07-15T07:16:07;99608.16;;;25.03;50.13
60676;BME280;46716;38.014;-7.874;2022-07-15T07:18:08;99602.41;;;25.06;50.38
60676;BME280;46716;38.014;-7.874;2022-07-15T07:20:09;99617.03;;;25.28;50.02
60676;BME280;46716;38.014;-7.874;2022-07-15T07:22:10;99608.72;;;25.38;50.15
60676;BME280;46716;38.014;-7.874;2022-07-15T07:24:11;99605.94;;;25.55;49.81
60676;BME280;46716;38.014;-7.874;2022-07-15T07:26:13;99617.34;;;25.82;49.04
60676;BME280;46716;38.014;-7.874;2022-07-15T07:28:14;99604.00;;;26.04;49.13
60676;BME280;46716;38.014;-7.874;2022-07-15T07:30:16;99617.53;;;26.27;48.45
60676;BME280;46716;38.014;-7.874;2022-07-15T07:32:17;99606.44;;;26.45;47.62
60676;BME280;46716;38.014;-7.874;2022-07-15T07:34:18;99609.66;;;26.64;47.33
60676;BME280;46716;38.014;-7.874;2022-07-15T07:36:19;99605.94;;;26.80;47.01
60676;BME280;46716;38.014;-7.874;2022-07-15T07:38:21;99602.81;;;27.07;47.13
60676;BME280;46716;38.014;-7.874;2022-07-15T07:40:21;99613.38;;;27.32;46.91
60676;BME280;46716;38.014;-7.874;2022-07-15T07:42:22;99620.19;;;27.58;46.64
60676;BME280;46716;38.014;-7.874;2022-07-15T07:44:23;99597.81;;;27.71;47.37
60676;BME280;46716;38.014;-7.874;2022-07-15T07:46:24;99617.78;;;28.00;47.48
60676;BME280;46716;38.014;-7.874;2022-07-15T07:48:25;99615.25;;;28.20;46.86
60676;BME280;46716;38.014;-7.874;2022-07-15T07:50:27;99618.13;;;28.34;46.45
60676;BME280;46716;38.014;-7.874;2022-07-15T07:52:28;99618.75;;;28.58;46.09
60676;BME280;46716;38.014;-7.874;2022-07-15T07:54:29;99613.41;;;28.71;45.56
60676;BME280;46716;38.014;-7.874;2022-07-15T07:56:30;99604.72;;;28.83;45.07
60676;BME280;46716;38.014;-7.874;2022-07-15T07:58:32;99607.34;;;28.98;44.66
60676;BME280;46716;38.014;-7.874;2022-07-15T08:00:34;99613.53;;;29.13;43.27
60676;BME280;46716;38.014;-7.874;2022-07-15T08:02:35;99614.66;;;29.33;41.32
60676;BME280;46716;38.014;-7.874;2022-07-15T08:04:36;99609.06;;;29.41;40.91
60676;BME280;46716;38.014;-7.874;2022-07-15T08:06:38;99602.16;;;29.45;38.88
60676;BME280;46716;38.014;-7.874;2022-07-15T08:08:39;99598.63;;;29.51;38.92
60676;BME280;46716;38.014;-7.874;2022-07-15T08:10:43;99599.69;;;29.50;38.04
60676;BME280;46716;38.014;-7.874;2022-07-15T08:12:45;99613.13;;;29.59;38.63
60676;BME280;46716;38.014;-7.874;2022-07-15T08:14:46;99600.56;;;29.58;39.45
60676;BME280;46716;38.014;-7.874;2022-07-15T08:16:46;99615.28;;;29.77;38.89
60676;BME280;46716;38.014;-7.874;2022-07-15T08:18:47;99616.38;;;29.96;37.91
60676;BME280;46716;38.014;-7.874;2022-07-15T08:20:48;99610.97;;;30.03;35.78
60676;BME280;46716;38.014;-7.874;2022-07-15T08:22:49;99611.44;;;30.20;35.04
60676;BME280;46716;38.014;-7.874;2022-07-15T08:24:58;99606.22;;;30.39;32.97
60676;BME280;46716;38.014;-7.874;2022-07-15T08:26:59;99623.38;;;30.66;31.06
60676;BME280;46716;38.014;-7.874;2022-07-15T08:29:02;99620.91;;;30.85;29.90
60676;BME280;46716;38.014;-7.874;2022-07-15T08:31:03;99615.41;;;31.05;28.78
60676;BME280;46716;38.014;-7.874;2022-07-15T08:33:03;99632.56;;;31.26;28.72
60676;BME280;46716;38.014;-7.874;2022-07-15T08:35:05;99622.25;;;31.42;28.98
60676;BME280;46716;38.014;-7.874;2022-07-15T08:37:06;99629.13;;;31.58;28.10
60676;BME280;46716;38.014;-7.874;2022-07-15T08:39:07;99635.75;;;31.76;27.82
60676;BME280;46716;38.014;-7.874;2022-07-15T08:41:08;99620.19;;;31.83;27.82
60676;BME280;46716;38.014;-7.874;2022-07-15T08:43:10;99632.28;;;32.01;27.31
60676;BME280;46716;38.014;-7.874;2022-07-15T08:45:13;99639.38;;;32.09;26.33
60676;BME280;46716;38.014;-7.874;2022-07-15T08:47:16;99634.44;;;32.24;26.29
60676;BME280;46716;38.014;-7.874;2022-07-15T08:49:17;99628.31;;;32.29;27.07
60676;BME280;46716;38.014;-7.874;2022-07-15T08:51:22;99627.22;;;32.37;26.23
60676;BME280;46716;38.014;-7.874;2022-07-15T08:53:25;99621.00;;;32.55;26.76
60676;BME280;46716;38.014;-7.874;2022-07-15T08:55:28;99634.03;;;32.78;28.07
60676;BME280;46716;38.014;-7.874;2022-07-15T08:57:29;99623.72;;;32.80;27.87
60676;BME280;46716;38.014;-7.874;2022-07-15T08:59:30;99626.31;;;32.94;27.53
60676;BME280;46716;38.014;-7.874;2022-07-15T09:01:32;99624.84;;;32.91;28.15
60676;BME280;46716;38.014;-7.874;2022-07-15T09:03:34;99622.41;;;33.09;27.85
60676;BME280;46716;38.014;-7.874;2022-07-15T09:05:36;99639.75;;;33.21;27.94
60676;BME280;46716;38.014;-7.874;2022-07-15T09:08:08;99634.13;;;33.35;28.43
60676;BME280;46716;38.014;-7.874;2022-07-15T09:10:10;99634.72;;;33.55;29.42
60676;BME280;46716;38.014;-7.874;2022-07-15T09:12:11;99642.63;;;33.64;28.94
60676;BME280;46716;38.014;-7.874;2022-07-15T09:14:13;99616.94;;;33.65;28.80
60676;BME280;46716;38.014;-7.874;2022-07-15T09:16:14;99637.97;;;33.83;27.86
60676;BME280;46716;38.014;-7.874;2022-07-15T09:18:24;99641.84;;;33.75;28.58
60676;BME280;46716;38.014;-7.874;2022-07-15T09:20:27;99632.59;;;33.76;27.71
60676;BME280;46716;38.014;-7.874;2022-07-15T09:22:30;99645.56;;;33.81;27.03
60676;BME280;46716;38.014;-7.874;2022-07-15T09:24:31;99634.16;;;33.84;26.80
60676;BME280;46716;38.014;-7.874;2022-07-15T09:26:34;99634.53;;;33.88;26.51
60676;BME280;46716;38.014;-7.874;2022-07-15T09:28:40;99611.94;;;33.92;26.25
60676;BME280;46716;38.014;-7.874;2022-07-15T09:30:44;99643.00;;;34.29;26.25
60676;BME280;46716;38.014;-7.874;2022-07-15T09:33:14;99631.38;;;34.57;23.82
60676;BME280;46716;38.014;-7.874;2022-07-15T09:35:34;99630.09;;;34.96;21.54
60676;BME280;46716;38.014;-7.874;2022-07-15T09:37:58;99640.94;;;35.15;20.47
60676;BME280;46716;38.014;-7.874;2022-07-15T09:39:59;99615.41;;;35.14;20.16
60676;BME280;46716;38.014;-7.874;2022-07-15T09:42:05;99622.09;;;35.30;20.01
60676;BME280;46716;38.014;-7.874;2022-07-15T09:46:13;99616.72;;;35.36;20.20
60676;BME280;46716;38.014;-7.874;2022-07-15T09:48:14;99631.47;;;35.59;19.83
60676;BME280;46716;38.014;-7.874;2022-07-15T09:50:32;99625.72;;;35.72;19.62
60676;BME280;46716;38.014;-7.874;2022-07-15T09:52:45;99629.50;;;35.71;20.02
60676;BME280;46716;38.014;-7.874;2022-07-15T09:54:48;99630.75;;;35.92;19.93
60676;BME280;46716;38.014;-7.874;2022-07-15T09:56:49;99636.66;;;36.01;19.63
60676;BME280;46716;38.014;-7.874;2022-07-15T09:58:51;99630.63;;;36.16;18.86
60676;BME280;46716;38.014;-7.874;2022-07-15T10:00:52;99631.75;;;36.32;18.76
60676;BME280;46716;38.014;-7.874;2022-07-15T10:02:54;99629.00;;;36.32;18.92
60676;BME280;46716;38.014;-7.874;2022-07-15T10:04:55;99633.66;;;36.49;18.96
60676;BME280;46716;38.014;-7.874;2022-07-15T10:06:58;99628.00;;;36.73;18.38
60676;BME280;46716;38.014;-7.874;2022-07-15T10:09:05;99618.81;;;36.85;19.03
60676;BME280;46716;38.014;-7.874;2022-07-15T10:11:08;99636.59;;;37.16;18.07
60676;BME280;46716;38.014;-7.874;2022-07-15T10:16:03;99624.16;;;36.91;17.49
60676;BME280;46716;38.014;-7.874;2022-07-15T10:18:29;99630.22;;;36.93;17.62
60676;BME280;46716;38.014;-7.874;2022-07-15T10:20:54;99628.00;;;37.13;17.93
60676;BME280;46716;38.014;-7.874;2022-07-15T10:28:03;99623.88;;;37.32;16.98
60676;BME280;46716;38.014;-7.874;2022-07-15T10:30:07;99614.81;;;37.15;16.66
60676;BME280;46716;38.014;-7.874;2022-07-15T10:32:09;99627.19;;;37.12;17.27
60676;BME280;46716;38.014;-7.874;2022-07-15T10:36:14;99622.84;;;37.39;17.10
60676;BME280;46716;38.014;-7.874;2022-07-15T10:41:04;99631.50;;;37.70;16.42
60676;BME280;46716;38.014;-7.874;2022-07-15T10:43:05;99624.34;;;37.69;16.62
60676;BME280;46716;38.014;-7.874;2022-07-15T10:45:07;99626.56;;;37.72;16.92
60676;BME280;46716;38.014;-7.874;2022-07-15T10:53:46;99631.66;;;38.13;16.55
60676;BME280;46716;38.014;-7.874;2022-07-15T10:55:48;99630.50;;;38.09;16.42
60676;BME280;46716;38.014;-7.874;2022-07-15T10:57:49;99626.03;;;38.03;15.91
60676;BME280;46716;38.014;-7.874;2022-07-15T10:59:55;99632.56;;;38.19;16.09
60676;BME280;46716;38.014;-7.874;2022-07-15T11:06:18;99632.28;;;38.20;16.72
60676;BME280;46716;38.014;-7.874;2022-07-15T11:10:31;99618.06;;;38.34;16.42
60676;BME280;46716;38.014;-7.874;2022-07-15T11:14:49;99630.47;;;38.64;16.19